sensor_id;sensor_type;location;lat;lon;timestamp;P1;durP1;ratioP1;P2;durP2;ratioP2
1625;SDS011;806;48.770;9.156;2023-11-19T00:01:01;1.20;;;0.50;;
1625;SDS011;806;48.770;9.156;2023-11-19T00:03:32;0.60;;;0.40;;
1625;SDS011;806;48.770;9.156;2023-11-19T00:06:00;1.00;;;0.40;;
1625;SDS011;806;48.770;9.156;2023-11-19T00:08:28;0.70;;;0.40;;
1625;SDS011;806;48.770;9.156;2023-11-19T00:10:54;0.90;;;0.50;;
1625;SDS011;806;48.770;9.156;2023-11-19T00:13:21;0.70;;;0.50;;
1625;SDS011;806;48.770;9.156;2023-11-19T00:15:51;0.90;;;0.45;;
1625;SDS011;806;48.770;9.156;2023-11-19T00:18:18;0.80;;;0.40;;
1625;SDS011;806;48.770;9.156;2023-11-19T00:20:46;1.10;;;0.40;;
1625;SDS011;806;48.770;9.156;2023-11-19T00:23:13;0.52;;;0.30;;
1625;SDS011;806;48.770;9.156;2023-11-19T00:25:40;0.60;;;0.40;;
1625;SDS011;806;48.770;9.156;2023-11-19T00:28:07;1.60;;;0.80;;
1625;SDS011;806;48.770;9.156;2023-11-19T00:30:34;0.60;;;0.40;;
1625;SDS011;806;48.770;9.156;2023-11-19T00:33:01;0.60;;;0.30;;
1625;SDS011;806;48.770;9.156;2023-11-19T00:35:28;0.60;;;0.30;;
1625;SDS011;806;48.770;9.156;2023-11-19T00:37:58;1.20;;;0.40;;
1625;SDS011;806;48.770;9.156;2023-11-19T00:40:25;2.00;;;0.50;;
1625;SDS011;806;48.770;9.156;2023-11-19T00:42:52;1.38;;;0.55;;
1625;SDS011;806;48.770;9.156;2023-11-19T00:45:19;1.15;;;0.35;;
1625;SDS011;806;48.770;9.156;2023-11-19T00:47:46;0.60;;;0.30;;
1625;SDS011;806;48.770;9.156;2023-11-19T00:50:14;1.20;;;0.50;;
1625;SDS011;806;48.770;9.156;2023-11-19T00:52:40;1.42;;;0.30;;
1625;SDS011;806;48.770;9.156;2023-11-19T00:55:09;1.20;;;0.40;;
1625;SDS011;806;48.770;9.156;2023-11-19T00:57:36;1.10;;;0.30;;
1625;SDS011;806;48.770;9.156;2023-11-19T01:00:03;0.80;;;0.30;;
1625;SDS011;806;48.770;9.156;2023-11-19T01:02:36;0.50;;;0.20;;
1625;SDS011;806;48.770;9.156;2023-11-19T01:05:03;0.85;;;0.32;;
1625;SDS011;806;48.770;9.156;2023-11-19T01:07:31;0.40;;;0.20;;
1625;SDS011;806;48.770;9.156;2023-11-19T01:09:58;2.10;;;0.50;;
1625;SDS011;806;48.770;9.156;2023-11-19T01:12:26;1.75;;;0.50;;
1625;SDS011;806;48.770;9.156;2023-11-19T01:14:53;0.63;;;0.30;;
1625;SDS011;806;48.770;9.156;2023-11-19T01:17:22;0.80;;;0.40;;
1625;SDS011;806;48.770;9.156;2023-11-19T01:19:49;0.50;;;0.25;;
1625;SDS011;806;48.770;9.156;2023-11-19T01:22:16;0.80;;;0.40;;
1625;SDS011;806;48.770;9.156;2023-11-19T01:24:44;0.47;;;0.20;;
1625;SDS011;806;48.770;9.156;2023-11-19T01:27:11;0.60;;;0.30;;
1625;SDS011;806;48.770;9.156;2023-11-19T01:29:39;0.53;;;0.20;;
1625;SDS011;806;48.770;9.156;2023-11-19T01:32:08;0.40;;;0.20;;
1625;SDS011;806;48.770;9.156;2023-11-19T01:34:35;0.50;;;0.20;;
1625;SDS011;806;48.770;9.156;2023-11-19T01:37:02;0.40;;;0.10;;
1625;SDS011;806;48.770;9.156;2023-11-19T01:39:29;0.30;;;0.10;;
1625;SDS011;806;48.770;9.156;2023-11-19T01:41:56;0.40;;;0.10;;
1625;SDS011;806;48.770;9.156;2023-11-19T01:44:24;0.90;;;0.10;;
1625;SDS011;806;48.770;9.156;2023-11-19T01:46:52;0.40;;;0.20;;
1625;SDS011;806;48.770;9.156;2023-11-19T01:49:19;0.30;;;0.10;;
1625;SDS011;806;48.770;9.156;2023-11-19T01:51:47;0.30;;;0.10;;
1625;SDS011;806;48.770;9.156;2023-11-19T01:54:14;0.30;;;0.10;;
1625;SDS011;806;48.770;9.156;2023-11-19T01:56:42;0.30;;;0.10;;
1625;SDS011;806;48.770;9.156;2023-11-19T01:59:09;0.30;;;0.10;;
1625;SDS011;806;48.770;9.156;2023-11-19T02:01:39;0.40;;;0.10;;
1625;SDS011;806;48.770;9.156;2023-11-19T02:04:08;0.30;;;0.10;;
1625;SDS011;806;48.770;9.156;2023-11-19T02:06:36;0.35;;;0.10;;
1625;SDS011;806;48.770;9.156;2023-11-19T02:09:06;0.30;;;0.10;;
1625;SDS011;806;48.770;9.156;2023-11-19T02:11:34;0.50;;;0.20;;
1625;SDS011;806;48.770;9.156;2023-11-19T02:14:01;0.30;;;0.10;;
1625;SDS011;806;48.770;9.156;2023-11-19T02:16:29;0.30;;;0.10;;
1625;SDS011;806;48.770;9.156;2023-11-19T02:18:56;0.50;;;0.10;;
1625;SDS011;806;48.770;9.156;2023-11-19T02:21:25;0.30;;;0.10;;
1625;SDS011;806;48.770;9.156;2023-11-19T02:23:52;0.30;;;0.10;;
1625;SDS011;806;48.770;9.156;2023-11-19T02:26:22;0.40;;;0.10;;
1625;SDS011;806;48.770;9.156;2023-11-19T02:28:57;0.40;;;0.10;;
1625;SDS011;806;48.770;9.156;2023-11-19T02:31:24;0.30;;;0.10;;
1625;SDS011;806;48.770;9.156;2023-11-19T02:33:52;0.32;;;0.10;;
1625;SDS011;806;48.770;9.156;2023-11-19T02:36:20;0.40;;;0.10;;
1625;SDS011;806;48.770;9.156;2023-11-19T02:38:47;0.40;;;0.10;;
1625;SDS011;806;48.770;9.156;2023-11-19T02:41:14;0.30;;;0.10;;
1625;SDS011;806;48.770;9.156;2023-11-19T02:43:42;0.30;;;0.10;;
1625;SDS011;806;48.770;9.156;2023-11-19T02:46:10;0.40;;;0.10;;
1625;SDS011;806;48.770;9.156;2023-11-19T02:48:37;0.30;;;0.20;;
1625;SDS011;806;48.770;9.156;2023-11-19T02:51:04;0.50;;;0.10;;
1625;SDS011;806;48.770;9.156;2023-11-19T02:53:34;0.60;;;0.10;;
1625;SDS011;806;48.770;9.156;2023-11-19T02:56:02;0.30;;;0.10;;
1625;SDS011;806;48.770;9.156;2023-11-19T02:58:40;0.30;;;0.10;;
1625;SDS011;806;48.770;9.156;2023-11-19T03:01:11;0.30;;;0.10;;
1625;SDS011;806;48.770;9.156;2023-11-19T03:03:48;0.30;;;0.10;;
1625;SDS011;806;48.770;9.156;2023-11-19T03:06:19;0.30;;;0.10;;
1625;SDS011;806;48.770;9.156;2023-11-19T03:08:46;0.50;;;0.10;;
1625;SDS011;806;48.770;9.156;2023-11-19T03:11:14;0.30;;;0.10;;
1625;SDS011;806;48.770;9.156;2023-11-19T03:13:41;0.30;;;0.10;;
1625;SDS011;806;48.770;9.156;2023-11-19T03:16:08;0.40;;;0.10;;
1625;SDS011;806;48.770;9.156;2023-11-19T03:18:38;0.40;;;0.10;;
1625;SDS011;806;48.770;9.156;2023-11-19T03:21:05;0.40;;;0.10;;
1625;SDS011;806;48.770;9.156;2023-11-19T03:23:33;0.55;;;0.20;;
1625;SDS011;806;48.770;9.156;2023-11-19T03:26:00;0.40;;;0.20;;
1625;SDS011;806;48.770;9.156;2023-11-19T03:28:30;0.40;;;0.10;;
1625;SDS011;806;48.770;9.156;2023-11-19T03:30:57;2.40;;;0.30;;
1625;SDS011;806;48.770;9.156;2023-11-19T03:33:24;0.57;;;0.20;;
1625;SDS011;806;48.770;9.156;2023-11-19T03:35:54;0.40;;;0.15;;
1625;SDS011;806;48.770;9.156;2023-11-19T03:38:23;0.90;;;0.10;;
1625;SDS011;806;48.770;9.156;2023-11-19T03:40:50;0.88;;;0.30;;
1625;SDS011;806;48.770;9.156;2023-11-19T03:43:17;0.70;;;0.20;;
1625;SDS011;806;48.770;9.156;2023-11-19T03:45:45;0.47;;;0.20;;
1625;SDS011;806;48.770;9.156;2023-11-19T03:48:13;0.30;;;0.10;;
1625;SDS011;806;48.770;9.156;2023-11-19T03:50:41;0.40;;;0.10;;
1625;SDS011;806;48.770;9.156;2023-11-19T03:53:11;0.50;;;0.20;;
1625;SDS011;806;48.770;9.156;2023-11-19T03:55:38;0.50;;;0.20;;
1625;SDS011;806;48.770;9.156;2023-11-19T03:58:05;0.40;;;0.20;;
1625;SDS011;806;48.770;9.156;2023-11-19T04:00:32;0.30;;;0.20;;
1625;SDS011;806;48.770;9.156;2023-11-19T04:02:59;0.40;;;0.20;;
1625;SDS011;806;48.770;9.156;2023-11-19T04:05:26;1.83;;;0.10;;
1625;SDS011;806;48.770;9.156;2023-11-19T04:07:53;0.30;;;0.10;;
1625;SDS011;806;48.770;9.156;2023-11-19T04:10:22;0.30;;;0.10;;
1625;SDS011;806;48.770;9.156;2023-11-19T04:12:49;1.63;;;0.40;;
1625;SDS011;806;48.770;9.156;2023-11-19T04:15:16;0.50;;;0.10;;
1625;SDS011;806;48.770;9.156;2023-11-19T04:17:43;0.30;;;0.10;;
1625;SDS011;806;48.770;9.156;2023-11-19T04:20:10;0.40;;;0.10;;
1625;SDS011;806;48.770;9.156;2023-11-19T04:22:38;1.50;;;0.10;;
1625;SDS011;806;48.770;9.156;2023-11-19T04:25:06;0.68;;;0.25;;
1625;SDS011;806;48.770;9.156;2023-11-19T04:27:35;0.80;;;0.20;;
1625;SDS011;806;48.770;9.156;2023-11-19T04:30:02;0.40;;;0.10;;
1625;SDS011;806;48.770;9.156;2023-11-19T04:32:30;0.30;;;0.10;;
1625;SDS011;806;48.770;9.156;2023-11-19T04:34:57;0.60;;;0.20;;
1625;SDS011;806;48.770;9.156;2023-11-19T04:37:24;0.50;;;0.10;;
1625;SDS011;806;48.770;9.156;2023-11-19T04:39:51;0.30;;;0.10;;
1625;SDS011;806;48.770;9.156;2023-11-19T04:42:18;0.60;;;0.30;;
1625;SDS011;806;48.770;9.156;2023-11-19T04:44:50;0.40;;;0.10;;
1625;SDS011;806;48.770;9.156;2023-11-19T04:47:17;0.50;;;0.20;;
1625;SDS011;806;48.770;9.156;2023-11-19T04:49:44;1.20;;;0.35;;
1625;SDS011;806;48.770;9.156;2023-11-19T04:52:11;0.40;;;0.20;;
1625;SDS011;806;48.770;9.156;2023-11-19T04:54:40;0.40;;;0.10;;
1625;SDS011;806;48.770;9.156;2023-11-19T04:57:08;0.40;;;0.10;;
1625;SDS011;806;48.770;9.156;2023-11-19T04:59:36;0.40;;;0.20;;
1625;SDS011;806;48.770;9.156;2023-11-19T05:02:05;0.40;;;0.10;;
1625;SDS011;806;48.770;9.156;2023-11-19T05:04:32;0.60;;;0.20;;
1625;SDS011;806;48.770;9.156;2023-11-19T05:06:59;0.30;;;0.10;;
1625;SDS011;806;48.770;9.156;2023-11-19T05:09:26;0.30;;;0.10;;
1625;SDS011;806;48.770;9.156;2023-11-19T05:11:53;0.40;;;0.10;;
1625;SDS011;806;48.770;9.156;2023-11-19T05:14:20;0.30;;;0.20;;
1625;SDS011;806;48.770;9.156;2023-11-19T05:16:49;0.30;;;0.10;;
1625;SDS011;806;48.770;9.156;2023-11-19T05:19:18;0.30;;;0.10;;
1625;SDS011;806;48.770;9.156;2023-11-19T05:21:45;0.30;;;0.10;;
1625;SDS011;806;48.770;9.156;2023-11-19T05:24:12;0.30;;;0.10;;
1625;SDS011;806;48.770;9.156;2023-11-19T05:26:39;0.30;;;0.10;;
1625;SDS011;806;48.770;9.156;2023-11-19T05:29:06;0.30;;;0.10;;
1625;SDS011;806;48.770;9.156;2023-11-19T05:31:33;0.30;;;0.10;;
1625;SDS011;806;48.770;9.156;2023-11-19T05:34:00;0.40;;;0.10;;
1625;SDS011;806;48.770;9.156;2023-11-19T05:36:29;0.30;;;0.10;;
1625;SDS011;806;48.770;9.156;2023-11-19T05:38:56;0.30;;;0.10;;
1625;SDS011;806;48.770;9.156;2023-11-19T05:41:23;0.30;;;0.10;;
1625;SDS011;806;48.770;9.156;2023-11-19T05:43:50;0.30;;;0.10;;
1625;SDS011;806;48.770;9.156;2023-11-19T05:46:17;0.30;;;0.10;;
1625;SDS011;806;48.770;9.156;2023-11-19T05:48:44;0.50;;;0.10;;
1625;SDS011;806;48.770;9.156;2023-11-19T05:51:12;0.40;;;0.10;;
1625;SDS011;806;48.770;9.156;2023-11-19T05:53:41;0.50;;;0.20;;
1625;SDS011;806;48.770;9.156;2023-11-19T05:56:08;0.30;;;0.10;;
1625;SDS011;806;48.770;9.156;2023-11-19T05:58:35;0.30;;;0.10;;
1625;SDS011;806;48.770;9.156;2023-11-19T06:01:04;0.30;;;0.10;;
1625;SDS011;806;48.770;9.156;2023-11-19T06:03:32;0.30;;;0.10;;
1625;SDS011;806;48.770;9.156;2023-11-19T06:05:59;0.30;;;0.10;;
1625;SDS011;806;48.770;9.156;2023-11-19T06:08:27;0.30;;;0.10;;
1625;SDS011;806;48.770;9.156;2023-11-19T06:10:57;0.30;;;0.10;;
1625;SDS011;806;48.770;9.156;2023-11-19T06:13:26;0.30;;;0.10;;
1625;SDS011;806;48.770;9.156;2023-11-19T06:15:53;0.40;;;0.20;;
1625;SDS011;806;48.770;9.156;2023-11-19T06:18:20;0.43;;;0.15;;
1625;SDS011;806;48.770;9.156;2023-11-19T06:20:48;0.30;;;0.10;;
1625;SDS011;806;48.770;9.156;2023-11-19T06:23:15;0.40;;;0.10;;
1625;SDS011;806;48.770;9.156;2023-11-19T06:25:42;0.30;;;0.10;;
1625;SDS011;806;48.770;9.156;2023-11-19T06:28:11;0.80;;;0.10;;
1625;SDS011;806;48.770;9.156;2023-11-19T06:30:38;0.40;;;0.10;;
1625;SDS011;806;48.770;9.156;2023-11-19T06:33:06;0.40;;;0.10;;
1625;SDS011;806;48.770;9.156;2023-11-19T06:35:33;0.30;;;0.10;;
1625;SDS011;806;48.770;9.156;2023-11-19T06:38:02;0.40;;;0.20;;
1625;SDS011;806;48.770;9.156;2023-11-19T06:40:29;0.30;;;0.10;;
1625;SDS011;806;48.770;9.156;2023-11-19T06:42:56;0.30;;;0.10;;
1625;SDS011;806;48.770;9.156;2023-11-19T06:45:25;0.30;;;0.10;;
1625;SDS011;806;48.770;9.156;2023-11-19T06:47:52;0.30;;;0.10;;
1625;SDS011;806;48.770;9.156;2023-11-19T06:50:19;0.30;;;0.10;;
1625;SDS011;806;48.770;9.156;2023-11-19T06:52:46;0.30;;;0.10;;
1625;SDS011;806;48.770;9.156;2023-11-19T06:55:13;0.30;;;0.10;;
1625;SDS011;806;48.770;9.156;2023-11-19T06:57:41;0.50;;;0.10;;
1625;SDS011;806;48.770;9.156;2023-11-19T07:00:08;0.30;;;0.10;;
1625;SDS011;806;48.770;9.156;2023-11-19T07:02:37;0.30;;;0.10;;
1625;SDS011;806;48.770;9.156;2023-11-19T07:05:05;0.30;;;0.10;;
1625;SDS011;806;48.770;9.156;2023-11-19T07:07:33;0.32;;;0.10;;
1625;SDS011;806;48.770;9.156;2023-11-19T07:10:00;0.30;;;0.10;;
1625;SDS011;806;48.770;9.156;2023-11-19T07:12:29;0.30;;;0.10;;
1625;SDS011;806;48.770;9.156;2023-11-19T07:14:56;0.40;;;0.20;;
1625;SDS011;806;48.770;9.156;2023-11-19T07:17:23;0.30;;;0.10;;
1625;SDS011;806;48.770;9.156;2023-11-19T07:19:52;0.30;;;0.10;;
1625;SDS011;806;48.770;9.156;2023-11-19T07:22:19;0.30;;;0.10;;
1625;SDS011;806;48.770;9.156;2023-11-19T07:24:46;0.40;;;0.10;;
1625;SDS011;806;48.770;9.156;2023-11-19T07:27:13;0.40;;;0.10;;
1625;SDS011;806;48.770;9.156;2023-11-19T07:29:43;0.30;;;0.10;;
1625;SDS011;806;48.770;9.156;2023-11-19T07:32:10;0.30;;;0.10;;
1625;SDS011;806;48.770;9.156;2023-11-19T07:34:38;0.30;;;0.10;;
1625;SDS011;806;48.770;9.156;2023-11-19T07:37:07;0.40;;;0.20;;
1625;SDS011;806;48.770;9.156;2023-11-19T07:39:34;0.30;;;0.10;;
1625;SDS011;806;48.770;9.156;2023-11-19T07:42:03;0.30;;;0.10;;
1625;SDS011;806;48.770;9.156;2023-11-19T07:44:30;0.75;;;0.10;;
1625;SDS011;806;48.770;9.156;2023-11-19T07:46:57;0.30;;;0.10;;
1625;SDS011;806;48.770;9.156;2023-11-19T07:49:24;0.30;;;0.10;;
1625;SDS011;806;48.770;9.156;2023-11-19T07:51:51;0.30;;;0.10;;
1625;SDS011;806;48.770;9.156;2023-11-19T07:54:20;0.40;;;0.10;;
1625;SDS011;806;48.770;9.156;2023-11-19T07:56:47;0.38;;;0.10;;
1625;SDS011;806;48.770;9.156;2023-11-19T07:59:15;0.30;;;0.10;;
1625;SDS011;806;48.770;9.156;2023-11-19T08:01:42;0.30;;;0.10;;
1625;SDS011;806;48.770;9.156;2023-11-19T08:04:09;0.40;;;0.20;;
1625;SDS011;806;48.770;9.156;2023-11-19T08:06:36;0.50;;;0.20;;
1625;SDS011;806;48.770;9.156;2023-11-19T08:09:04;0.40;;;0.10;;
1625;SDS011;806;48.770;9.156;2023-11-19T08:11:33;0.40;;;0.10;;
1625;SDS011;806;48.770;9.156;2023-11-19T08:14:00;0.30;;;0.10;;
1625;SDS011;806;48.770;9.156;2023-11-19T08:16:27;1.60;;;0.10;;
1625;SDS011;806;48.770;9.156;2023-11-19T08:18:54;0.30;;;0.10;;
1625;SDS011;806;48.770;9.156;2023-11-19T08:21:23;0.30;;;0.10;;
1625;SDS011;806;48.770;9.156;2023-11-19T08:23:52;0.30;;;0.10;;
1625;SDS011;806;48.770;9.156;2023-11-19T08:26:19;0.40;;;0.10;;
1625;SDS011;806;48.770;9.156;2023-11-19T08:28:47;0.30;;;0.10;;
1625;SDS011;806;48.770;9.156;2023-11-19T08:31:14;0.40;;;0.10;;
1625;SDS011;806;48.770;9.156;2023-11-19T08:33:41;0.30;;;0.10;;
1625;SDS011;806;48.770;9.156;2023-11-19T08:36:09;0.30;;;0.10;;
1625;SDS011;806;48.770;9.156;2023-11-19T08:38:42;0.40;;;0.10;;
1625;SDS011;806;48.770;9.156;2023-11-19T08:41:09;1.00;;;0.10;;
1625;SDS011;806;48.770;9.156;2023-11-19T08:43:36;0.30;;;0.10;;
1625;SDS011;806;48.770;9.156;2023-11-19T08:46:07;0.30;;;0.10;;
1625;SDS011;806;48.770;9.156;2023-11-19T08:48:36;0.30;;;0.10;;
1625;SDS011;806;48.770;9.156;2023-11-19T08:51:03;0.40;;;0.10;;
1625;SDS011;806;48.770;9.156;2023-11-19T08:53:30;0.30;;;0.10;;
1625;SDS011;806;48.770;9.156;2023-11-19T08:55:58;0.60;;;0.10;;
1625;SDS011;806;48.770;9.156;2023-11-19T08:58:25;0.40;;;0.10;;
1625;SDS011;806;48.770;9.156;2023-11-19T09:00:52;0.90;;;0.10;;
1625;SDS011;806;48.770;9.156;2023-11-19T09:03:21;0.40;;;0.20;;
1625;SDS011;806;48.770;9.156;2023-11-19T09:05:48;0.90;;;0.10;;
1625;SDS011;806;48.770;9.156;2023-11-19T09:08:15;0.30;;;0.10;;
1625;SDS011;806;48.770;9.156;2023-11-19T09:10:42;0.30;;;0.10;;
1625;SDS011;806;48.770;9.156;2023-11-19T09:13:09;0.40;;;0.10;;
1625;SDS011;806;48.770;9.156;2023-11-19T09:15:37;0.40;;;0.10;;
1625;SDS011;806;48.770;9.156;2023-11-19T09:18:04;0.50;;;0.10;;
1625;SDS011;806;48.770;9.156;2023-11-19T09:20:33;0.80;;;0.10;;
1625;SDS011;806;48.770;9.156;2023-11-19T09:23:03;0.30;;;0.10;;
1625;SDS011;806;48.770;9.156;2023-11-19T09:25:31;0.30;;;0.10;;
1625;SDS011;806;48.770;9.156;2023-11-19T09:27:58;0.40;;;0.20;;
1625;SDS011;806;48.770;9.156;2023-11-19T09:30:25;0.40;;;0.10;;
1625;SDS011;806;48.770;9.156;2023-11-19T09:32:52;0.50;;;0.20;;
1625;SDS011;806;48.770;9.156;2023-11-19T09:35:19;0.40;;;0.20;;
1625;SDS011;806;48.770;9.156;2023-11-19T09:37:47;0.30;;;0.10;;
1625;SDS011;806;48.770;9.156;2023-11-19T09:40:14;0.50;;;0.10;;
1625;SDS011;806;48.770;9.156;2023-11-19T09:42:43;0.30;;;0.10;;
1625;SDS011;806;48.770;9.156;2023-11-19T09:45:13;0.30;;;0.17;;
1625;SDS011;806;48.770;9.156;2023-11-19T09:47:43;0.30;;;0.20;;
1625;SDS011;806;48.770;9.156;2023-11-19T09:50:12;0.40;;;0.20;;
1625;SDS011;806;48.770;9.156;2023-11-19T09:52:42;0.63;;;0.20;;
1625;SDS011;806;48.770;9.156;2023-11-19T09:55:11;0.40;;;0.10;;
1625;SDS011;806;48.770;9.156;2023-11-19T09:57:39;1.20;;;0.10;;
1625;SDS011;806;48.770;9.156;2023-11-19T10:00:09;0.50;;;0.15;;
1625;SDS011;806;48.770;9.156;2023-11-19T10:02:38;0.30;;;0.20;;
1625;SDS011;806;48.770;9.156;2023-11-19T10:05:07;0.35;;;0.10;;
1625;SDS011;806;48.770;9.156;2023-11-19T10:07:35;1.80;;;0.10;;
1625;SDS011;806;48.770;9.156;2023-11-19T10:10:03;0.30;;;0.10;;
1625;SDS011;806;48.770;9.156;2023-11-19T10:12:32;0.80;;;0.20;;
1625;SDS011;806;48.770;9.156;2023-11-19T10:14:59;0.40;;;0.40;;
1625;SDS011;806;48.770;9.156;2023-11-19T10:17:30;0.30;;;0.10;;
1625;SDS011;806;48.770;9.156;2023-11-19T10:19:59;0.30;;;0.10;;
1625;SDS011;806;48.770;9.156;2023-11-19T10:22:27;0.38;;;0.10;;
1625;SDS011;806;48.770;9.156;2023-11-19T10:24:54;0.40;;;0.10;;
1625;SDS011;806;48.770;9.156;2023-11-19T10:27:23;0.30;;;0.10;;
1625;SDS011;806;48.770;9.156;2023-11-19T10:29:52;0.40;;;0.10;;
1625;SDS011;806;48.770;9.156;2023-11-19T10:32:19;0.93;;;0.20;;
1625;SDS011;806;48.770;9.156;2023-11-19T10:34:46;1.20;;;0.10;;
1625;SDS011;806;48.770;9.156;2023-11-19T10:37:27;0.40;;;0.20;;
1625;SDS011;806;48.770;9.156;2023-11-19T10:39:57;0.38;;;0.10;;
1625;SDS011;806;48.770;9.156;2023-11-19T10:42:24;0.40;;;0.20;;
1625;SDS011;806;48.770;9.156;2023-11-19T10:44:52;0.40;;;0.10;;
1625;SDS011;806;48.770;9.156;2023-11-19T10:47:19;0.40;;;0.10;;
1625;SDS011;806;48.770;9.156;2023-11-19T10:49:48;0.30;;;0.10;;
1625;SDS011;806;48.770;9.156;2023-11-19T10:52:17;0.30;;;0.10;;
1625;SDS011;806;48.770;9.156;2023-11-19T10:54:47;0.68;;;0.30;;
1625;SDS011;806;48.770;9.156;2023-11-19T10:57:19;0.50;;;0.20;;
1625;SDS011;806;48.770;9.156;2023-11-19T10:59:48;0.40;;;0.10;;
1625;SDS011;806;48.770;9.156;2023-11-19T11:02:21;0.50;;;0.20;;
1625;SDS011;806;48.770;9.156;2023-11-19T11:04:50;0.40;;;0.17;;
1625;SDS011;806;48.770;9.156;2023-11-19T11:07:19;0.70;;;0.30;;
1625;SDS011;806;48.770;9.156;2023-11-19T11:09:51;0.50;;;0.20;;
1625;SDS011;806;48.770;9.156;2023-11-19T11:12:19;0.38;;;0.17;;
1625;SDS011;806;48.770;9.156;2023-11-19T11:14:48;0.40;;;0.15;;
1625;SDS011;806;48.770;9.156;2023-11-19T11:17:17;0.30;;;0.10;;
1625;SDS011;806;48.770;9.156;2023-11-19T11:19:46;0.30;;;0.10;;
1625;SDS011;806;48.770;9.156;2023-11-19T11:22:13;0.40;;;0.10;;
1625;SDS011;806;48.770;9.156;2023-11-19T11:24:53;0.52;;;0.20;;
1625;SDS011;806;48.770;9.156;2023-11-19T11:27:47;0.50;;;0.20;;
1625;SDS011;806;48.770;9.156;2023-11-19T11:30:25;0.70;;;0.50;;
1625;SDS011;806;48.770;9.156;2023-11-19T11:33:02;0.70;;;0.10;;
1625;SDS011;806;48.770;9.156;2023-11-19T11:35:41;0.40;;;0.10;;
1625;SDS011;806;48.770;9.156;2023-11-19T11:38:21;0.40;;;0.20;;
1625;SDS011;806;48.770;9.156;2023-11-19T11:43:45;0.50;;;0.20;;
1625;SDS011;806;48.770;9.156;2023-11-19T11:49:18;0.40;;;0.10;;
1625;SDS011;806;48.770;9.156;2023-11-19T11:52:00;0.50;;;0.20;;
1625;SDS011;806;48.770;9.156;2023-11-19T11:54:28;0.40;;;0.20;;
1625;SDS011;806;48.770;9.156;2023-11-19T11:59:47;0.80;;;0.10;;
1625;SDS011;806;48.770;9.156;2023-11-19T12:02:14;0.80;;;0.20;;
1625;SDS011;806;48.770;9.156;2023-11-19T12:04:42;0.70;;;0.30;;
1625;SDS011;806;48.770;9.156;2023-11-19T12:07:15;0.65;;;0.20;;
1625;SDS011;806;48.770;9.156;2023-11-19T12:09:47;0.30;;;0.20;;
1625;SDS011;806;48.770;9.156;2023-11-19T12:12:18;1.30;;;0.20;;
1625;SDS011;806;48.770;9.156;2023-11-19T12:15:06;0.50;;;0.13;;
1625;SDS011;806;48.770;9.156;2023-11-19T12:17:36;0.40;;;0.10;;
1625;SDS011;806;48.770;9.156;2023-11-19T12:20:09;0.50;;;0.20;;
1625;SDS011;806;48.770;9.156;2023-11-19T12:22:39;0.30;;;0.10;;
1625;SDS011;806;48.770;9.156;2023-11-19T12:25:07;0.68;;;0.20;;
1625;SDS011;806;48.770;9.156;2023-11-19T12:27:35;0.80;;;0.10;;
1625;SDS011;806;48.770;9.156;2023-11-19T12:30:03;0.38;;;0.10;;
1625;SDS011;806;48.770;9.156;2023-11-19T12:32:40;0.50;;;0.20;;
1625;SDS011;806;48.770;9.156;2023-11-19T12:35:08;0.40;;;0.10;;
1625;SDS011;806;48.770;9.156;2023-11-19T12:37:45;0.60;;;0.17;;
1625;SDS011;806;48.770;9.156;2023-11-19T12:40:14;0.30;;;0.10;;
1625;SDS011;806;48.770;9.156;2023-11-19T12:42:42;0.30;;;0.10;;
1625;SDS011;806;48.770;9.156;2023-11-19T12:45:10;0.40;;;0.10;;
1625;SDS011;806;48.770;9.156;2023-11-19T12:47:37;0.50;;;0.20;;
1625;SDS011;806;48.770;9.156;2023-11-19T12:50:07;0.70;;;0.20;;
1625;SDS011;806;48.770;9.156;2023-11-19T12:52:35;0.50;;;0.10;;
1625;SDS011;806;48.770;9.156;2023-11-19T12:55:05;0.33;;;0.10;;
1625;SDS011;806;48.770;9.156;2023-11-19T12:57:50;0.40;;;0.10;;
1625;SDS011;806;48.770;9.156;2023-11-19T13:00:20;0.40;;;0.20;;
1625;SDS011;806;48.770;9.156;2023-11-19T13:02:49;0.30;;;0.10;;
1625;SDS011;806;48.770;9.156;2023-11-19T13:05:21;0.60;;;0.10;;
1625;SDS011;806;48.770;9.156;2023-11-19T13:07:49;0.60;;;0.10;;
1625;SDS011;806;48.770;9.156;2023-11-19T13:10:18;0.30;;;0.10;;
1625;SDS011;806;48.770;9.156;2023-11-19T13:12:59;0.50;;;0.15;;
1625;SDS011;806;48.770;9.156;2023-11-19T13:15:27;0.60;;;0.20;;
1625;SDS011;806;48.770;9.156;2023-11-19T13:17:54;0.30;;;0.10;;
1625;SDS011;806;48.770;9.156;2023-11-19T13:20:21;0.40;;;0.20;;
1625;SDS011;806;48.770;9.156;2023-11-19T13:22:58;0.30;;;0.10;;
1625;SDS011;806;48.770;9.156;2023-11-19T13:25:27;0.70;;;0.10;;
1625;SDS011;806;48.770;9.156;2023-11-19T13:27:55;0.30;;;0.10;;
1625;SDS011;806;48.770;9.156;2023-11-19T13:30:23;0.30;;;0.10;;
1625;SDS011;806;48.770;9.156;2023-11-19T13:32:51;2.03;;;0.20;;
1625;SDS011;806;48.770;9.156;2023-11-19T13:35:20;0.90;;;0.20;;
1625;SDS011;806;48.770;9.156;2023-11-19T13:37:48;0.33;;;0.20;;
1625;SDS011;806;48.770;9.156;2023-11-19T13:40:15;0.40;;;0.10;;
1625;SDS011;806;48.770;9.156;2023-11-19T13:42:43;0.50;;;0.20;;
1625;SDS011;806;48.770;9.156;2023-11-19T13:45:11;0.50;;;0.20;;
1625;SDS011;806;48.770;9.156;2023-11-19T13:47:39;1.20;;;0.30;;
1625;SDS011;806;48.770;9.156;2023-11-19T13:50:09;0.90;;;0.30;;
1625;SDS011;806;48.770;9.156;2023-11-19T13:52:36;0.60;;;0.20;;
1625;SDS011;806;48.770;9.156;2023-11-19T13:55:05;0.65;;;0.17;;
1625;SDS011;806;48.770;9.156;2023-11-19T13:57:33;0.40;;;0.20;;
1625;SDS011;806;48.770;9.156;2023-11-19T14:00:02;0.40;;;0.10;;
1625;SDS011;806;48.770;9.156;2023-11-19T14:02:31;0.60;;;0.20;;
1625;SDS011;806;48.770;9.156;2023-11-19T14:04:58;0.50;;;0.10;;
1625;SDS011;806;48.770;9.156;2023-11-19T14:07:25;0.40;;;0.10;;
1625;SDS011;806;48.770;9.156;2023-11-19T14:09:52;0.50;;;0.20;;
1625;SDS011;806;48.770;9.156;2023-11-19T14:12:19;0.40;;;0.10;;
1625;SDS011;806;48.770;9.156;2023-11-19T14:14:46;0.40;;;0.20;;
1625;SDS011;806;48.770;9.156;2023-11-19T14:17:15;0.40;;;0.20;;
1625;SDS011;806;48.770;9.156;2023-11-19T14:19:42;0.70;;;0.20;;
1625;SDS011;806;48.770;9.156;2023-11-19T14:22:09;0.30;;;0.20;;
1625;SDS011;806;48.770;9.156;2023-11-19T14:24:36;0.50;;;0.20;;
1625;SDS011;806;48.770;9.156;2023-11-19T14:27:05;0.82;;;0.20;;
1625;SDS011;806;48.770;9.156;2023-11-19T14:29:32;0.40;;;0.20;;
1625;SDS011;806;48.770;9.156;2023-11-19T14:32:01;0.50;;;0.20;;
1625;SDS011;806;48.770;9.156;2023-11-19T14:34:29;0.40;;;0.17;;
1625;SDS011;806;48.770;9.156;2023-11-19T14:36:57;0.80;;;0.20;;
1625;SDS011;806;48.770;9.156;2023-11-19T14:39:25;0.47;;;0.20;;
1625;SDS011;806;48.770;9.156;2023-11-19T14:41:53;0.40;;;0.20;;
1625;SDS011;806;48.770;9.156;2023-11-19T14:44:23;0.40;;;0.20;;
1625;SDS011;806;48.770;9.156;2023-11-19T14:46:50;0.70;;;0.10;;
1625;SDS011;806;48.770;9.156;2023-11-19T14:49:17;0.40;;;0.20;;
1625;SDS011;806;48.770;9.156;2023-11-19T14:51:45;0.40;;;0.20;;
1625;SDS011;806;48.770;9.156;2023-11-19T14:54:12;1.00;;;0.20;;
1625;SDS011;806;48.770;9.156;2023-11-19T14:56:41;0.45;;;0.20;;
1625;SDS011;806;48.770;9.156;2023-11-19T14:59:08;0.70;;;0.20;;
1625;SDS011;806;48.770;9.156;2023-11-19T15:01:35;0.82;;;0.20;;
1625;SDS011;806;48.770;9.156;2023-11-19T15:04:02;0.70;;;0.20;;
1625;SDS011;806;48.770;9.156;2023-11-19T15:06:29;0.50;;;0.10;;
1625;SDS011;806;48.770;9.156;2023-11-19T15:09:00;0.30;;;0.10;;
1625;SDS011;806;48.770;9.156;2023-11-19T15:11:27;0.80;;;0.20;;
1625;SDS011;806;48.770;9.156;2023-11-19T15:13:54;0.30;;;0.10;;
1625;SDS011;806;48.770;9.156;2023-11-19T15:16:21;0.40;;;0.20;;
1625;SDS011;806;48.770;9.156;2023-11-19T15:18:55;0.50;;;0.20;;
1625;SDS011;806;48.770;9.156;2023-11-19T15:21:24;0.52;;;0.20;;
1625;SDS011;806;48.770;9.156;2023-11-19T15:23:52;0.80;;;0.30;;
1625;SDS011;806;48.770;9.156;2023-11-19T15:26:20;0.50;;;0.20;;
1625;SDS011;806;48.770;9.156;2023-11-19T15:28:47;0.90;;;0.20;;
1625;SDS011;806;48.770;9.156;2023-11-19T15:31:15;1.05;;;0.20;;
1625;SDS011;806;48.770;9.156;2023-11-19T15:33:42;0.80;;;0.20;;
1625;SDS011;806;48.770;9.156;2023-11-19T15:36:09;0.40;;;0.20;;
1625;SDS011;806;48.770;9.156;2023-11-19T15:38:36;1.20;;;0.28;;
1625;SDS011;806;48.770;9.156;2023-11-19T15:41:07;0.40;;;0.20;;
1625;SDS011;806;48.770;9.156;2023-11-19T15:43:35;0.50;;;0.30;;
1625;SDS011;806;48.770;9.156;2023-11-19T15:46:05;1.00;;;0.30;;